createdAt,value
2023-07-06T00:00:30.093Z,418.00
2023-07-06T00:01:30.179Z,419.00
2023-07-06T00:02:30.218Z,419.00
2023-07-06T00:03:30.230Z,421.00
2023-07-06T00:04:30.248Z,423.00
2023-07-06T00:05:30.225Z,422.00
2023-07-06T00:06:30.227Z,432.00
2023-07-06T00:07:30.237Z,427.00
2023-07-06T00:08:30.303Z,423.00
2023-07-06T00:09:30.288Z,423.00
2023-07-06T00:10:30.276Z,425.00
2023-07-06T00:11:30.297Z,426.00
2023-07-06T00:12:30.290Z,421.00
2023-07-06T00:13:30.364Z,424.00
2023-07-06T00:14:30.309Z,425.00
2023-07-06T00:15:30.318Z,419.00
2023-07-06T00:16:30.377Z,422.00
2023-07-06T00:17:30.418Z,420.00
2023-07-06T00:18:30.496Z,421.00
2023-07-06T00:19:30.552Z,422.00
2023-07-06T00:20:30.628Z,423.00
2023-07-06T00:21:30.602Z,423.00
2023-07-06T00:22:30.652Z,419.00
2023-07-06T00:23:30.735Z,420.00
2023-07-06T00:24:30.762Z,424.00
2023-07-06T00:25:30.844Z,423.00
2023-07-06T00:26:30.892Z,423.00
2023-07-06T00:27:30.948Z,423.00
2023-07-06T00:28:31.046Z,425.00
2023-07-06T00:29:31.080Z,417.00
2023-07-06T00:30:31.149Z,422.00
2023-07-06T00:31:31.240Z,425.00
2023-07-06T00:32:31.290Z,425.00
2023-07-06T00:33:31.262Z,426.00
2023-07-06T00:34:31.244Z,424.00
2023-07-06T00:35:31.278Z,420.00
2023-07-06T00:36:31.279Z,413.00
2023-07-06T00:37:31.287Z,411.00
2023-07-06T00:38:31.278Z,415.00
2023-07-06T00:39:31.277Z,411.00
2023-07-06T00:40:31.315Z,427.00
2023-07-06T00:41:31.311Z,426.00
2023-07-06T00:42:31.308Z,421.00
2023-07-06T00:43:31.329Z,421.00
2023-07-06T00:44:31.313Z,419.00
2023-07-06T00:45:31.337Z,416.00
2023-07-06T00:46:31.645Z,418.00
2023-07-06T00:47:31.394Z,414.00
2023-07-06T00:48:31.391Z,417.00
2023-07-06T00:49:31.362Z,417.00
2023-07-06T00:50:31.387Z,416.00
2023-07-06T00:51:31.393Z,416.00
2023-07-06T00:52:31.443Z,414.00
2023-07-06T00:53:31.463Z,414.00
2023-07-06T00:54:31.508Z,422.00
2023-07-06T00:55:31.587Z,412.00
2023-07-06T00:56:31.645Z,412.00
2023-07-06T00:57:31.718Z,416.00
2023-07-06T00:58:31.763Z,417.00
2023-07-06T00:59:31.783Z,417.00
2023-07-06T01:00:31.946Z,415.00
2023-07-06T01:01:31.985Z,416.00
2023-07-06T01:02:32.112Z,417.00
2023-07-06T01:03:32.236Z,418.00
2023-07-06T01:04:32.160Z,415.00
2023-07-06T01:05:32.280Z,420.00
2023-07-06T01:06:32.269Z,417.00
2023-07-06T01:07:32.305Z,416.00
2023-07-06T01:08:32.326Z,411.00
2023-07-06T01:09:32.328Z,411.00
2023-07-06T01:10:32.416Z,413.00
2023-07-06T01:11:32.363Z,414.00
2023-07-06T01:12:32.372Z,414.00
2023-07-06T01:13:32.404Z,418.00
2023-07-06T01:14:32.350Z,420.00
2023-07-06T01:15:32.431Z,420.00
2023-07-06T01:16:32.522Z,420.00
2023-07-06T01:17:32.425Z,419.00
2023-07-06T01:18:32.392Z,418.00
2023-07-06T01:19:32.398Z,420.00
2023-07-06T01:20:32.390Z,420.00
2023-07-06T01:21:32.400Z,424.00
2023-07-06T01:22:32.398Z,424.00
2023-07-06T01:23:32.433Z,421.00
2023-07-06T01:24:32.478Z,422.00
2023-07-06T01:25:32.528Z,419.00
2023-07-06T01:26:32.562Z,418.00
2023-07-06T01:27:32.589Z,416.00
2023-07-06T01:28:32.649Z,422.00
2023-07-06T01:29:32.707Z,422.00
2023-07-06T01:30:32.721Z,426.00
2023-07-06T01:31:32.849Z,420.00
2023-07-06T01:32:32.892Z,419.00
2023-07-06T01:33:32.924Z,419.00
2023-07-06T01:34:32.977Z,422.00
2023-07-06T01:35:33.044Z,428.00
2023-07-06T01:36:33.109Z,427.00
2023-07-06T01:37:33.204Z,445.00
2023-07-06T01:38:33.266Z,424.00
2023-07-06T01:39:33.312Z,425.00
2023-07-06T01:40:33.385Z,425.00
2023-07-06T01:41:33.465Z,425.00
2023-07-06T01:42:33.542Z,424.00
2023-07-06T01:43:33.521Z,424.00
2023-07-06T01:44:33.593Z,423.00
2023-07-06T01:45:33.600Z,424.00
2023-07-06T01:46:33.607Z,420.00
2023-07-06T01:47:33.652Z,418.00
2023-07-06T01:48:33.697Z,423.00
2023-07-06T01:49:33.661Z,421.00
2023-07-06T01:50:33.682Z,419.00
2023-07-06T01:51:33.708Z,419.00
2023-07-06T01:52:33.723Z,417.00
2023-07-06T01:53:33.740Z,419.00
2023-07-06T01:54:33.714Z,425.00
2023-07-06T01:55:33.735Z,421.00
2023-07-06T01:56:33.740Z,425.00
2023-07-06T01:57:43.250Z,423.00
2023-07-06T01:58:34.802Z,424.00
2023-07-06T01:59:33.804Z,417.00
2023-07-06T02:00:33.930Z,415.00
2023-07-06T02:01:33.828Z,423.00
2023-07-06T02:02:33.979Z,421.00
2023-07-06T02:03:33.881Z,417.00
2023-07-06T02:04:33.948Z,416.00
2023-07-06T02:05:33.869Z,406.00
2023-07-06T02:06:33.884Z,423.00
2023-07-06T02:07:33.872Z,420.00
2023-07-06T02:08:33.900Z,414.00
2023-07-06T02:09:33.929Z,415.00
2023-07-06T02:10:33.902Z,417.00
2023-07-06T02:11:33.961Z,418.00
2023-07-06T02:12:34.048Z,417.00
2023-07-06T02:13:34.166Z,418.00
2023-07-06T02:14:34.193Z,417.00
2023-07-06T02:15:34.209Z,424.00
2023-07-06T02:16:34.321Z,418.00
2023-07-06T02:17:34.320Z,430.00
2023-07-06T02:18:34.327Z,426.00
2023-07-06T02:19:34.388Z,423.00
2023-07-06T02:20:34.402Z,422.00
2023-07-06T02:21:34.434Z,419.00
2023-07-06T02:22:34.470Z,420.00
2023-07-06T02:23:34.607Z,422.00
2023-07-06T02:24:34.707Z,422.00
2023-07-06T02:25:34.754Z,424.00
2023-07-06T02:26:34.816Z,424.00
2023-07-06T02:27:34.852Z,424.00
2023-07-06T02:28:34.904Z,423.00
2023-07-06T02:29:34.916Z,422.00
2023-07-06T02:30:35.083Z,422.00
2023-07-06T02:31:35.044Z,423.00
2023-07-06T02:32:35.234Z,423.00
2023-07-06T02:33:35.164Z,421.00
2023-07-06T02:34:35.171Z,420.00
2023-07-06T02:35:35.195Z,420.00
2023-07-06T02:36:35.217Z,419.00
2023-07-06T02:37:35.232Z,419.00
2023-07-06T02:38:35.521Z,419.00
2023-07-06T02:39:35.272Z,420.00
2023-07-06T02:40:35.307Z,420.00
2023-07-06T02:41:35.347Z,420.00
2023-07-06T02:42:35.486Z,421.00
2023-07-06T02:43:35.486Z,420.00
2023-07-06T02:44:35.524Z,421.00
2023-07-06T02:45:35.627Z,422.00
2023-07-06T02:46:35.651Z,421.00
2023-07-06T02:47:35.696Z,419.00
2023-07-06T02:48:35.735Z,418.00
2023-07-06T02:49:35.803Z,415.00
2023-07-06T02:50:35.853Z,417.00
2023-07-06T02:51:35.904Z,418.00
2023-07-06T02:52:35.972Z,418.00
2023-07-06T02:53:36.020Z,421.00
2023-07-06T02:54:36.049Z,422.00
2023-07-06T02:55:36.022Z,421.00
2023-07-06T02:56:36.030Z,421.00
2023-07-06T02:57:36.059Z,422.00
2023-07-06T02:58:36.095Z,421.00
2023-07-06T02:59:36.194Z,423.00
2023-07-06T03:00:36.217Z,415.00
2023-07-06T03:01:36.350Z,418.00
2023-07-06T03:02:36.372Z,422.00
2023-07-06T03:03:36.390Z,428.00
2023-07-06T03:04:36.451Z,422.00
2023-07-06T03:05:36.479Z,424.00
2023-07-06T03:06:36.425Z,427.00
2023-07-06T03:07:36.398Z,425.00
2023-07-06T03:08:36.424Z,424.00
2023-07-06T03:09:36.432Z,420.00
2023-07-06T03:10:36.428Z,420.00
2023-07-06T03:11:36.425Z,421.00
2023-07-06T03:12:36.429Z,421.00
2023-07-06T03:13:36.484Z,424.00
2023-07-06T03:14:36.458Z,425.00
2023-07-06T03:15:36.453Z,428.00
2023-07-06T03:16:36.549Z,429.00
2023-07-06T03:17:36.611Z,427.00
2023-07-06T03:18:36.626Z,429.00
2023-07-06T03:19:36.666Z,429.00
2023-07-06T03:20:36.716Z,429.00
2023-07-06T03:21:36.740Z,424.00
2023-07-06T03:22:36.766Z,425.00
2023-07-06T03:23:36.809Z,424.00
2023-07-06T03:24:36.905Z,426.00
2023-07-06T03:25:36.959Z,423.00
2023-07-06T03:26:37.040Z,415.00
2023-07-06T03:27:36.996Z,422.00
2023-07-06T03:28:37.034Z,422.00
2023-07-06T03:29:37.118Z,422.00
2023-07-06T03:30:37.094Z,422.00
2023-07-06T03:31:37.239Z,431.00
2023-07-06T03:32:37.288Z,423.00
2023-07-06T03:33:37.302Z,420.00
2023-07-06T03:34:37.351Z,424.00
2023-07-06T03:35:37.390Z,422.00
2023-07-06T03:36:37.413Z,424.00
2023-07-06T03:37:37.475Z,424.00
2023-07-06T03:38:37.517Z,423.00
2023-07-06T03:39:37.604Z,426.00
2023-07-06T03:40:37.624Z,427.00
2023-07-06T03:41:37.628Z,426.00
2023-07-06T03:42:37.702Z,425.00
2023-07-06T03:43:37.774Z,425.00
2023-07-06T03:44:37.802Z,425.00
2023-07-06T03:45:37.802Z,424.00
2023-07-06T03:46:38.016Z,422.00
2023-07-06T03:47:37.865Z,422.00
2023-07-06T03:48:37.791Z,423.00
2023-07-06T03:49:37.784Z,423.00
2023-07-06T03:50:37.812Z,425.00
2023-07-06T03:51:37.816Z,425.00
2023-07-06T03:52:37.785Z,425.00
2023-07-06T03:53:37.782Z,428.00
2023-07-06T03:54:37.796Z,429.00
2023-07-06T03:55:37.791Z,430.00
2023-07-06T03:56:37.802Z,425.00
2023-07-06T03:57:42.298Z,425.00
2023-07-06T03:58:38.803Z,425.00
2023-07-06T03:59:37.790Z,428.00
2023-07-06T04:00:37.821Z,429.00
2023-07-06T04:01:37.965Z,429.00
2023-07-06T04:02:37.850Z,433.00
2023-07-06T04:03:37.837Z,435.00
2023-07-06T04:04:37.807Z,438.00
2023-07-06T04:05:37.979Z,433.00
2023-07-06T04:06:37.798Z,428.00
2023-07-06T04:07:37.798Z,423.00
2023-07-06T04:08:37.788Z,421.00
2023-07-06T04:09:37.813Z,427.00
2023-07-06T04:10:37.804Z,430.00
2023-07-06T04:11:37.788Z,423.00
2023-07-06T04:12:37.856Z,421.00
2023-07-06T04:13:37.959Z,423.00
2023-07-06T04:14:37.866Z,426.00
2023-07-06T04:15:37.860Z,424.00
2023-07-06T04:16:37.945Z,423.00
2023-07-06T04:17:37.918Z,421.00
2023-07-06T04:18:37.878Z,422.00
2023-07-06T04:19:37.889Z,420.00
2023-07-06T04:20:37.901Z,420.00
2023-07-06T04:21:37.900Z,419.00
2023-07-06T04:22:37.896Z,416.00
2023-07-06T04:23:37.910Z,423.00
2023-07-06T04:24:37.928Z,417.00
2023-07-06T04:25:37.898Z,419.00
2023-07-06T04:26:37.902Z,420.00
2023-07-06T04:27:37.902Z,422.00
2023-07-06T04:28:37.919Z,421.00
2023-07-06T04:29:37.935Z,421.00
2023-07-06T04:30:37.937Z,424.00
2023-07-06T04:31:38.088Z,423.00
2023-07-06T04:32:37.989Z,421.00
2023-07-06T04:33:37.980Z,420.00
2023-07-06T04:34:38.062Z,420.00
2023-07-06T04:35:40.319Z,426.00
2023-07-06T04:36:38.239Z,429.00
2023-07-06T04:37:38.275Z,420.00
2023-07-06T04:38:38.343Z,417.00
2023-07-06T04:39:38.396Z,422.00
2023-07-06T04:40:38.432Z,422.00
2023-07-06T04:41:38.579Z,420.00
2023-07-06T04:42:38.521Z,418.00
2023-07-06T04:43:38.579Z,422.00
2023-07-06T04:44:38.655Z,421.00
2023-07-06T04:45:38.667Z,420.00
2023-07-06T04:46:38.763Z,421.00
2023-07-06T04:47:38.787Z,423.00
2023-07-06T04:48:38.800Z,422.00
2023-07-06T04:49:38.861Z,428.00
2023-07-06T04:50:39.076Z,429.00
2023-07-06T04:51:38.928Z,428.00
2023-07-06T04:52:38.922Z,427.00
2023-07-06T04:53:38.985Z,430.00
2023-07-06T04:54:39.043Z,427.00
2023-07-06T04:55:39.123Z,426.00
2023-07-06T04:56:39.137Z,429.00
2023-07-06T04:57:39.182Z,436.00
2023-07-06T04:58:39.230Z,431.00
2023-07-06T04:59:39.288Z,431.00
2023-07-06T05:00:39.267Z,433.00
2023-07-06T05:01:39.303Z,434.00
2023-07-06T05:02:39.346Z,434.00
2023-07-06T05:03:39.406Z,429.00
2023-07-06T05:04:39.428Z,427.00
2023-07-06T05:05:39.480Z,428.00
2023-07-06T05:06:39.481Z,435.00
2023-07-06T05:07:39.503Z,431.00
2023-07-06T05:08:39.489Z,429.00
2023-07-06T05:09:39.490Z,428.00
2023-07-06T05:10:39.559Z,431.00
2023-07-06T05:11:39.423Z,429.00
2023-07-06T05:12:39.404Z,424.00
2023-07-06T05:13:39.430Z,428.00
2023-07-06T05:14:39.383Z,421.00
2023-07-06T05:15:39.405Z,433.00
2023-07-06T05:16:39.417Z,429.00
2023-07-06T05:17:39.376Z,429.00
2023-07-06T05:18:39.347Z,437.00
2023-07-06T05:19:39.348Z,438.00
2023-07-06T05:20:39.425Z,432.00
2023-07-06T05:21:39.332Z,429.00
2023-07-06T05:22:39.326Z,426.00
2023-07-06T05:23:39.319Z,427.00
2023-07-06T05:24:39.367Z,426.00
2023-07-06T05:25:39.323Z,427.00
2023-07-06T05:26:39.907Z,423.00
2023-07-06T05:27:39.427Z,423.00
2023-07-06T05:28:39.364Z,426.00
2023-07-06T05:29:39.616Z,425.00
2023-07-06T05:30:39.345Z,427.00
2023-07-06T05:31:39.326Z,430.00
2023-07-06T05:32:39.334Z,426.00
2023-07-06T05:33:39.296Z,429.00
2023-07-06T05:34:39.516Z,430.00
2023-07-06T05:35:39.268Z,429.00
2023-07-06T05:36:39.386Z,431.00
2023-07-06T05:37:39.288Z,430.00
2023-07-06T05:38:39.268Z,433.00
2023-07-06T05:39:39.231Z,431.00
2023-07-06T05:40:39.186Z,427.00
2023-07-06T05:41:39.202Z,428.00
2023-07-06T05:42:39.934Z,425.00
2023-07-06T05:43:39.176Z,427.00
2023-07-06T05:44:39.436Z,426.00
2023-07-06T05:45:39.155Z,427.00
2023-07-06T05:46:39.166Z,429.00
2023-07-06T05:47:39.171Z,429.00
2023-07-06T05:48:39.159Z,430.00
2023-07-06T05:49:39.215Z,431.00
2023-07-06T05:50:39.238Z,429.00
2023-07-06T05:51:39.264Z,430.00
2023-07-06T05:52:39.324Z,424.00
2023-07-06T05:53:39.342Z,424.00
2023-07-06T05:54:39.372Z,426.00
2023-07-06T05:55:39.403Z,426.00
2023-07-06T05:56:39.443Z,427.00
2023-07-06T05:57:39.475Z,424.00
2023-07-06T05:58:39.559Z,426.00
2023-07-06T05:59:39.551Z,425.00
2023-07-06T06:00:39.547Z,427.00
2023-07-06T06:01:39.643Z,428.00
2023-07-06T06:02:39.703Z,426.00
2023-07-06T06:03:40.474Z,423.00
2023-07-06T06:04:39.915Z,423.00
2023-07-06T06:05:39.696Z,436.00
2023-07-06T06:06:39.690Z,429.00
2023-07-06T06:07:40.449Z,424.00
2023-07-06T06:08:39.638Z,424.00
2023-07-06T06:09:39.604Z,422.00
2023-07-06T06:10:39.642Z,423.00
2023-07-06T06:11:39.564Z,421.00
2023-07-06T06:12:39.581Z,425.00
2023-07-06T06:13:39.569Z,426.00
2023-07-06T06:14:39.531Z,429.00
2023-07-06T06:15:39.511Z,427.00
2023-07-06T06:16:39.492Z,428.00
2023-07-06T06:17:39.548Z,429.00
2023-07-06T06:18:41.216Z,425.00
2023-07-06T06:19:39.410Z,426.00
2023-07-06T06:20:39.380Z,424.00
2023-07-06T06:21:39.378Z,424.00
2023-07-06T06:22:39.379Z,425.00
2023-07-06T06:23:39.312Z,429.00
2023-07-06T06:24:39.279Z,427.00
2023-07-06T06:25:39.274Z,427.00
2023-07-06T06:26:39.214Z,427.00
2023-07-06T06:27:39.208Z,427.00
2023-07-06T06:28:39.174Z,425.00
2023-07-06T06:29:39.444Z,423.00
2023-07-06T06:30:39.125Z,425.00
2023-07-06T06:31:39.134Z,426.00
2023-07-06T06:32:39.160Z,427.00
2023-07-06T06:33:39.093Z,420.00
2023-07-06T06:34:39.181Z,425.00
2023-07-06T06:35:39.942Z,422.00
2023-07-06T06:36:39.481Z,425.00
2023-07-06T06:37:39.087Z,427.00
2023-07-06T06:38:38.981Z,421.00
2023-07-06T06:39:39.030Z,428.00
2023-07-06T06:40:38.950Z,425.00
2023-07-06T06:41:38.916Z,414.00
2023-07-06T06:42:38.861Z,428.00
2023-07-06T06:43:38.829Z,426.00
2023-07-06T06:44:38.798Z,424.00
2023-07-06T06:45:38.769Z,425.00
2023-07-06T06:46:38.810Z,425.00
2023-07-06T06:47:38.729Z,421.00
2023-07-06T06:48:38.670Z,419.00
2023-07-06T06:49:38.964Z,416.00
2023-07-06T06:50:38.586Z,413.00
2023-07-06T06:51:38.550Z,416.00
2023-07-06T06:52:38.574Z,415.00
2023-07-06T06:53:38.484Z,412.00
2023-07-06T06:54:39.458Z,420.00
2023-07-06T06:55:38.421Z,412.00
2023-07-06T06:56:38.423Z,419.00
2023-07-06T06:57:38.375Z,408.00
2023-07-06T06:58:38.389Z,410.00
2023-07-06T06:59:38.318Z,410.00
2023-07-06T07:00:38.279Z,413.00
2023-07-06T07:01:38.274Z,411.00
2023-07-06T07:02:38.266Z,412.00
2023-07-06T07:03:38.252Z,423.00
2023-07-06T07:04:38.185Z,421.00
2023-07-06T07:05:38.167Z,417.00
2023-07-06T07:06:38.118Z,411.00
2023-07-06T07:07:38.084Z,407.00
2023-07-06T07:08:38.973Z,420.00
2023-07-06T07:09:38.134Z,420.00
2023-07-06T07:10:38.207Z,419.00
2023-07-06T07:11:38.105Z,432.00
2023-07-06T07:12:38.134Z,426.00
2023-07-06T07:13:38.226Z,418.00
2023-07-06T07:14:38.977Z,415.00
2023-07-06T07:15:38.162Z,425.00
2023-07-06T07:16:38.243Z,408.00
2023-07-06T07:17:38.297Z,409.00
2023-07-06T07:18:38.991Z,405.00
2023-07-06T07:19:38.537Z,415.00
2023-07-06T07:20:38.181Z,415.00
2023-07-06T07:21:38.168Z,408.00
2023-07-06T07:22:38.179Z,422.00
2023-07-06T07:23:38.167Z,410.00
2023-07-06T07:24:38.261Z,414.00
2023-07-06T07:25:38.152Z,412.00
2023-07-06T07:26:38.176Z,418.00
2023-07-06T07:27:38.162Z,410.00
2023-07-06T07:28:38.154Z,412.00
2023-07-06T07:29:38.089Z,410.00
2023-07-06T07:30:38.023Z,399.00
2023-07-06T07:31:38.007Z,399.00
2023-07-06T07:32:37.934Z,407.00
2023-07-06T07:33:37.937Z,415.00
2023-07-06T07:34:37.897Z,423.00
2023-07-06T07:35:37.836Z,417.00
2023-07-06T07:36:37.970Z,414.00
2023-07-06T07:37:37.890Z,419.00
2023-07-06T07:38:37.729Z,407.00
2023-07-06T07:39:37.730Z,413.00
2023-07-06T07:40:37.699Z,419.00
2023-07-06T07:41:37.698Z,410.00
2023-07-06T07:42:37.652Z,413.00
2023-07-06T07:43:37.648Z,423.00
2023-07-06T07:44:37.613Z,427.00
2023-07-06T07:45:37.680Z,422.00
2023-07-06T07:46:37.739Z,418.00
2023-07-06T07:47:37.621Z,418.00
2023-07-06T07:48:37.613Z,417.00
2023-07-06T07:49:37.967Z,450.00
2023-07-06T07:50:37.626Z,416.00
2023-07-06T07:51:37.655Z,421.00
2023-07-06T07:52:37.619Z,419.00
2023-07-06T07:53:40.106Z,423.00
2023-07-06T07:54:37.707Z,421.00
2023-07-06T07:55:37.651Z,420.00
2023-07-06T07:56:37.827Z,423.00
2023-07-06T07:57:37.635Z,421.00
2023-07-06T07:58:37.992Z,416.00
2023-07-06T07:59:37.696Z,431.00
2023-07-06T08:00:38.647Z,416.00
2023-07-06T08:01:38.707Z,418.00
2023-07-06T08:02:37.927Z,423.00
2023-07-06T08:03:38.860Z,447.00
2023-07-06T08:04:40.199Z,430.00
2023-07-06T08:05:37.658Z,420.00
2023-07-06T08:06:37.646Z,413.00
2023-07-06T08:07:37.657Z,410.00
2023-07-06T08:08:38.471Z,414.00
2023-07-06T08:09:37.682Z,423.00
2023-07-06T08:10:37.673Z,411.00
2023-07-06T08:11:37.657Z,431.00
2023-07-06T08:12:37.733Z,424.00
2023-07-06T08:13:37.686Z,408.00
2023-07-06T08:14:37.655Z,423.00
2023-07-06T08:15:37.740Z,414.00
2023-07-06T08:16:37.701Z,427.00
2023-07-06T08:17:37.650Z,428.00
2023-07-06T08:18:37.669Z,426.00
2023-07-06T08:19:55.145Z,418.00
2023-07-06T08:21:08.794Z,413.00
2023-07-06T08:22:38.596Z,401.00
2023-07-06T08:23:37.602Z,420.00
2023-07-06T08:24:37.544Z,414.00
2023-07-06T08:25:37.521Z,403.00
2023-07-06T08:26:37.535Z,431.00
2023-07-06T08:27:37.452Z,405.00
2023-07-06T08:28:37.414Z,418.00
2023-07-06T08:29:37.387Z,417.00
2023-07-06T08:30:37.356Z,410.00
2023-07-06T08:31:37.399Z,408.00
2023-07-06T08:32:37.362Z,413.00
2023-07-06T08:33:37.255Z,429.00
2023-07-06T08:34:37.430Z,415.00
2023-07-06T08:35:37.143Z,405.00
2023-07-06T08:36:37.972Z,407.00
2023-07-06T08:37:37.019Z,411.00
2023-07-06T08:38:37.021Z,413.00
2023-07-06T08:39:36.989Z,407.00
2023-07-06T08:40:36.888Z,400.00
2023-07-06T08:41:36.846Z,428.00
2023-07-06T08:42:36.784Z,413.00
2023-07-06T08:43:36.714Z,408.00
2023-07-06T08:44:36.743Z,407.00
2023-07-06T08:45:36.618Z,393.00
2023-07-06T08:46:36.612Z,399.00
2023-07-06T08:47:36.548Z,409.00
2023-07-06T08:48:36.483Z,400.00
2023-07-06T08:49:36.373Z,408.00
2023-07-06T08:50:36.333Z,407.00
2023-07-06T08:51:36.215Z,403.00
2023-07-06T08:52:36.118Z,411.00
2023-07-06T08:53:36.047Z,419.00
2023-07-06T08:54:36.046Z,402.00
2023-07-06T08:55:35.882Z,409.00
2023-07-06T08:56:35.853Z,408.00
2023-07-06T08:57:35.749Z,429.00
2023-07-06T08:58:35.688Z,401.00
2023-07-06T08:59:35.646Z,439.00
2023-07-06T09:00:35.584Z,392.00
2023-07-06T09:01:35.564Z,410.00
2023-07-06T09:02:35.553Z,409.00
2023-07-06T09:03:35.542Z,383.00
2023-07-06T09:04:35.449Z,404.00
2023-07-06T09:05:35.389Z,402.00
2023-07-06T09:06:35.322Z,413.00
2023-07-06T09:07:35.250Z,407.00
2023-07-06T09:08:35.246Z,417.00
2023-07-06T09:09:35.231Z,404.00
2023-07-06T09:10:35.120Z,402.00
2023-07-06T09:11:38.382Z,421.00
2023-07-06T09:12:34.985Z,408.00
2023-07-06T09:13:34.916Z,402.00
2023-07-06T09:14:34.817Z,409.00
2023-07-06T09:15:37.689Z,401.00
2023-07-06T09:16:34.656Z,398.00
2023-07-06T09:17:35.608Z,398.00
2023-07-06T09:18:34.517Z,397.00
2023-07-06T09:19:36.583Z,394.00
2023-07-06T09:20:35.000Z,399.00
2023-07-06T09:21:34.318Z,398.00
2023-07-06T09:22:34.329Z,398.00
2023-07-06T09:23:34.365Z,400.00
2023-07-06T09:24:34.051Z,400.00
2023-07-06T09:25:33.986Z,395.00
2023-07-06T09:26:34.343Z,398.00
2023-07-06T09:27:34.586Z,396.00
2023-07-06T09:28:33.850Z,382.00
2023-07-06T09:29:35.585Z,398.00
2023-07-06T09:30:34.567Z,409.00
2023-07-06T09:31:33.693Z,404.00
2023-07-06T09:32:33.753Z,401.00
2023-07-06T09:33:33.587Z,401.00
2023-07-06T09:34:33.613Z,392.00
2023-07-06T09:35:33.605Z,393.00
2023-07-06T09:36:33.508Z,392.00
2023-07-06T09:37:33.494Z,394.00
2023-07-06T09:38:33.851Z,397.00
2023-07-06T09:39:33.489Z,401.00
2023-07-06T09:40:33.979Z,399.00
2023-07-06T09:41:33.500Z,399.00
2023-07-06T09:42:34.105Z,396.00
2023-07-06T09:43:33.460Z,397.00
2023-07-06T09:44:33.365Z,400.00
2023-07-06T09:45:33.550Z,408.00
2023-07-06T09:46:33.329Z,404.00
2023-07-06T09:47:33.264Z,401.00
2023-07-06T09:48:33.190Z,405.00
2023-07-06T09:49:33.154Z,398.00
2023-07-06T09:50:33.120Z,395.00
2023-07-06T09:51:33.086Z,400.00
2023-07-06T09:52:33.047Z,392.00
2023-07-06T09:53:33.018Z,398.00
2023-07-06T09:54:32.878Z,405.00
2023-07-06T09:55:32.844Z,396.00
2023-07-06T09:56:32.718Z,397.00
2023-07-06T09:57:32.767Z,404.00
2023-07-06T09:58:33.563Z,401.00
2023-07-06T09:59:32.514Z,404.00
2023-07-06T10:00:32.431Z,398.00
2023-07-06T10:01:32.366Z,403.00
2023-07-06T10:02:32.276Z,406.00
2023-07-06T10:03:32.175Z,400.00
2023-07-06T10:04:32.101Z,401.00
2023-07-06T10:05:32.176Z,395.00
2023-07-06T10:06:32.014Z,405.00
2023-07-06T10:07:31.899Z,396.00
2023-07-06T10:08:31.917Z,401.00
2023-07-06T10:09:31.838Z,403.00
2023-07-06T10:10:31.912Z,411.00
2023-07-06T10:11:31.718Z,411.00
2023-07-06T10:12:31.673Z,418.00
2023-07-06T10:13:31.663Z,409.00
2023-07-06T10:14:31.567Z,396.00
2023-07-06T10:15:31.538Z,389.00
2023-07-06T10:16:31.490Z,394.00
2023-07-06T10:17:31.421Z,395.00
2023-07-06T10:18:31.329Z,404.00
2023-07-06T10:19:31.258Z,399.00
2023-07-06T10:20:31.267Z,398.00
2023-07-06T10:21:31.132Z,415.00
2023-07-06T10:22:31.100Z,385.00
2023-07-06T10:23:31.026Z,404.00
2023-07-06T10:24:31.015Z,391.00
2023-07-06T10:25:30.898Z,399.00
2023-07-06T10:26:30.812Z,403.00
2023-07-06T10:27:30.744Z,400.00
2023-07-06T10:28:30.731Z,404.00
2023-07-06T10:29:30.618Z,398.00
2023-07-06T10:30:30.618Z,401.00
2023-07-06T10:31:32.736Z,400.00
2023-07-06T10:32:30.625Z,398.00
2023-07-06T10:33:30.588Z,398.00
2023-07-06T10:34:30.604Z,399.00
2023-07-06T10:35:30.535Z,398.00
2023-07-06T10:36:30.446Z,397.00
2023-07-06T10:38:50.081Z,409.00
2023-07-06T10:39:49.423Z,400.00
2023-07-06T10:40:49.402Z,395.00
2023-07-06T10:41:49.411Z,397.00
2023-07-06T10:42:49.384Z,406.00
2023-07-06T10:43:49.395Z,397.00
2023-07-06T10:44:49.367Z,406.00
2023-07-06T10:45:49.443Z,405.00
2023-07-06T10:46:49.349Z,413.00
2023-07-06T10:47:49.397Z,388.00
2023-07-06T10:48:49.292Z,408.00
2023-07-06T10:49:49.320Z,407.00
2023-07-06T10:50:49.289Z,409.00
2023-07-06T10:51:49.246Z,428.00
2023-07-06T10:52:49.267Z,407.00
2023-07-06T10:53:49.239Z,405.00
2023-07-06T10:54:49.337Z,409.00
2023-07-06T10:55:49.214Z,414.00
2023-07-06T10:56:49.189Z,405.00
2023-07-06T10:57:49.194Z,382.00
2023-07-06T10:58:49.170Z,417.00
2023-07-06T10:59:49.138Z,394.00
2023-07-06T11:00:49.177Z,422.00
2023-07-06T11:01:49.256Z,421.00
2023-07-06T11:02:50.118Z,389.00
2023-07-06T11:03:49.193Z,396.00
2023-07-06T11:04:49.075Z,408.00
2023-07-06T11:05:49.090Z,384.00
2023-07-06T11:06:49.076Z,396.00
2023-07-06T11:07:49.037Z,407.00
2023-07-06T11:08:49.000Z,406.00
2023-07-06T11:09:49.026Z,404.00
2023-07-06T11:10:48.968Z,413.00
2023-07-06T11:11:48.952Z,396.00
2023-07-06T11:12:48.946Z,435.00
2023-07-06T11:13:48.966Z,410.00
2023-07-06T11:14:48.905Z,404.00
2023-07-06T11:15:48.971Z,398.00
2023-07-06T11:16:48.992Z,429.00
2023-07-06T11:17:48.910Z,473.00
2023-07-06T11:18:48.797Z,417.00
2023-07-06T11:19:48.753Z,412.00
2023-07-06T11:20:48.758Z,405.00
2023-07-06T11:21:48.727Z,414.00
2023-07-06T11:22:48.764Z,410.00
2023-07-06T11:23:48.677Z,403.00
2023-07-06T11:24:48.686Z,416.00
2023-07-06T11:25:48.649Z,411.00
2023-07-06T11:26:48.649Z,409.00
2023-07-06T11:27:48.701Z,404.00
2023-07-06T11:28:48.773Z,413.00
2023-07-06T11:29:48.734Z,413.00
2023-07-06T11:30:48.794Z,439.00
2023-07-06T11:31:49.039Z,399.00
2023-07-06T11:32:48.853Z,369.00
2023-07-06T11:33:48.861Z,407.00
2023-07-06T11:34:48.875Z,394.00
2023-07-06T11:35:48.890Z,399.00
2023-07-06T11:36:48.915Z,384.00
2023-07-06T11:37:58.427Z,390.00
2023-07-06T11:38:49.996Z,404.00
2023-07-06T11:39:49.035Z,398.00
2023-07-06T11:40:49.082Z,418.00
2023-07-06T11:41:49.055Z,414.00
2023-07-06T11:42:49.084Z,406.00
2023-07-06T11:43:49.094Z,398.00
2023-07-06T11:44:49.152Z,399.00
2023-07-06T11:45:49.183Z,393.00
2023-07-06T11:46:49.225Z,382.00
2023-07-06T11:47:49.488Z,391.00
2023-07-06T11:48:49.300Z,389.00
2023-07-06T11:49:49.313Z,403.00
2023-07-06T11:50:49.431Z,399.00
2023-07-06T11:51:49.437Z,438.00
2023-07-06T11:52:49.530Z,397.00
2023-07-06T11:53:49.547Z,375.00
2023-07-06T11:54:49.660Z,417.00
2023-07-06T11:55:49.776Z,397.00
2023-07-06T11:56:49.853Z,403.00
2023-07-06T11:57:49.956Z,395.00
2023-07-06T11:58:50.060Z,398.00
2023-07-06T11:59:50.170Z,384.00
2023-07-06T12:00:50.639Z,406.00
2023-07-06T12:01:50.354Z,370.00
2023-07-06T12:02:50.518Z,404.00
2023-07-06T12:03:50.602Z,409.00
2023-07-06T12:04:51.876Z,405.00
2023-07-06T12:05:52.205Z,402.00
2023-07-06T12:06:50.829Z,406.00
2023-07-06T12:07:50.919Z,409.00
2023-07-06T12:08:51.034Z,408.00
2023-07-06T12:09:51.171Z,397.00
2023-07-06T12:10:51.359Z,409.00
2023-07-06T12:11:51.385Z,404.00
2023-07-06T12:12:51.443Z,425.00
2023-07-06T12:13:51.569Z,412.00
2023-07-06T12:14:51.699Z,403.00
2023-07-06T12:15:51.728Z,408.00
2023-07-06T12:16:51.799Z,415.00
2023-07-06T12:17:51.879Z,413.00
2023-07-06T12:18:51.951Z,425.00
2023-07-06T12:19:52.042Z,409.00
2023-07-06T12:20:52.107Z,395.00
2023-07-06T12:21:52.188Z,399.00
2023-07-06T12:22:52.282Z,402.00
2023-07-06T12:23:52.332Z,403.00
2023-07-06T12:24:52.393Z,403.00
2023-07-06T12:25:52.500Z,406.00
2023-07-06T12:26:52.567Z,416.00
2023-07-06T12:27:52.601Z,404.00
2023-07-06T12:28:54.679Z,406.00
2023-07-06T12:29:52.762Z,389.00
2023-07-06T12:30:52.875Z,415.00